createdAt,value
2023-05-11T00:00:51.133Z,23.80
2023-05-11T00:01:51.192Z,23.78
2023-05-11T00:02:51.341Z,23.75
2023-05-11T00:03:51.375Z,23.78
2023-05-11T00:04:51.389Z,23.81
2023-05-11T00:05:51.437Z,23.78
2023-05-11T00:06:51.483Z,23.80
2023-05-11T00:07:51.514Z,23.80
2023-05-11T00:08:51.615Z,23.77
2023-05-11T00:09:51.742Z,23.80
2023-05-11T00:10:51.719Z,23.80
2023-05-11T00:11:51.754Z,23.80
2023-05-11T00:12:51.852Z,23.84
2023-05-11T00:13:51.869Z,23.82
2023-05-11T00:14:51.913Z,23.78
2023-05-11T00:15:52.024Z,23.80
2023-05-11T00:16:52.051Z,23.84
2023-05-11T00:17:52.135Z,23.85
2023-05-11T00:18:52.233Z,23.87
2023-05-11T00:19:52.211Z,23.84
2023-05-11T00:20:52.266Z,23.82
2023-05-11T00:21:52.341Z,23.87
2023-05-11T00:22:52.368Z,23.82
2023-05-11T00:23:52.433Z,23.82
2023-05-11T00:24:52.490Z,23.84
2023-05-11T00:25:52.534Z,23.80
2023-05-11T00:26:52.616Z,23.80
2023-05-11T00:27:52.682Z,23.77
2023-05-11T00:28:52.710Z,23.82
2023-05-11T00:29:52.797Z,23.78
2023-05-11T00:30:52.825Z,23.80
2023-05-11T00:31:52.959Z,23.78
2023-05-11T00:32:53.034Z,23.74
2023-05-11T00:33:53.064Z,23.77
2023-05-11T00:34:53.082Z,23.75
2023-05-11T00:35:53.136Z,23.75
2023-05-11T00:36:53.151Z,23.78
2023-05-11T00:37:53.192Z,23.80
2023-05-11T00:38:53.233Z,23.74
2023-05-11T00:39:53.251Z,23.72
2023-05-11T00:40:53.284Z,23.72
2023-05-11T00:41:53.317Z,23.71
2023-05-11T00:42:53.503Z,23.74
2023-05-11T00:43:53.420Z,23.70
2023-05-11T00:44:53.464Z,23.74
2023-05-11T00:45:53.597Z,23.67
2023-05-11T00:46:53.641Z,23.71
2023-05-11T00:47:53.715Z,23.71
2023-05-11T00:48:53.705Z,23.68
2023-05-11T00:49:53.897Z,23.75
2023-05-11T00:50:53.775Z,23.65
2023-05-11T00:51:53.840Z,23.71
2023-05-11T00:52:53.849Z,23.70
2023-05-11T00:53:53.881Z,23.74
2023-05-11T00:54:53.907Z,23.74
2023-05-11T00:55:53.873Z,23.64
2023-05-11T00:56:53.886Z,23.70
2023-05-11T00:57:53.918Z,23.68
2023-05-11T00:58:53.930Z,23.71
2023-05-11T00:59:53.922Z,23.72
2023-05-11T01:00:53.993Z,23.68
2023-05-11T01:01:53.947Z,23.71
2023-05-11T01:02:54.042Z,23.70
2023-05-11T01:03:53.977Z,23.68
2023-05-11T01:04:53.991Z,23.72
2023-05-11T01:05:54.001Z,23.67
2023-05-11T01:06:54.060Z,23.74
2023-05-11T01:07:54.079Z,23.70
2023-05-11T01:08:54.070Z,23.70
2023-05-11T01:09:54.241Z,23.70
2023-05-11T01:10:54.087Z,23.68
2023-05-11T01:11:54.066Z,23.70
2023-05-11T01:12:54.068Z,23.72
2023-05-11T01:13:54.061Z,23.70
2023-05-11T01:14:54.046Z,23.72
2023-05-11T01:15:54.090Z,23.71
2023-05-11T01:16:54.097Z,23.72
2023-05-11T01:17:54.158Z,23.70
2023-05-11T01:18:54.089Z,23.70
2023-05-11T01:19:54.105Z,23.67
2023-05-11T01:20:54.168Z,23.65
2023-05-11T01:21:54.199Z,23.70
2023-05-11T01:22:54.179Z,23.68
2023-05-11T01:23:54.180Z,23.68
2023-05-11T01:24:54.214Z,23.67
2023-05-11T01:25:54.218Z,23.67
2023-05-11T01:26:54.252Z,23.72
2023-05-11T01:27:54.250Z,23.71
2023-05-11T01:28:54.272Z,23.65
2023-05-11T01:29:54.261Z,23.65
2023-05-11T01:30:54.258Z,23.64
2023-05-11T01:31:54.330Z,23.68
2023-05-11T01:32:54.309Z,23.67
2023-05-11T01:33:54.326Z,23.70
2023-05-11T01:34:54.303Z,23.70
2023-05-11T01:35:54.286Z,23.63
2023-05-11T01:36:54.322Z,23.67
2023-05-11T01:37:54.301Z,23.63
2023-05-11T01:38:54.300Z,23.64
2023-05-11T01:39:54.312Z,23.61
2023-05-11T01:40:54.293Z,23.65
2023-05-11T01:41:54.281Z,23.63
2023-05-11T01:42:54.292Z,23.61
2023-05-11T01:43:54.301Z,23.67
2023-05-11T01:44:54.763Z,23.67
2023-05-11T01:45:54.382Z,23.68
2023-05-11T01:46:54.332Z,23.64
2023-05-11T01:47:54.428Z,23.64
2023-05-11T01:48:54.329Z,23.68
2023-05-11T01:49:54.746Z,23.60
2023-05-11T01:50:54.298Z,23.64
2023-05-11T01:51:54.322Z,23.65
2023-05-11T01:52:54.353Z,23.68
2023-05-11T01:53:54.322Z,23.68
2023-05-11T01:54:54.766Z,23.68
2023-05-11T01:55:54.347Z,23.60
2023-05-11T01:56:54.427Z,23.61
2023-05-11T01:57:54.446Z,23.61
2023-05-11T01:58:54.461Z,23.64
2023-05-11T01:59:54.467Z,23.67
2023-05-11T02:00:54.492Z,23.63
2023-05-11T02:01:54.502Z,23.64
2023-05-11T02:02:54.570Z,23.63
2023-05-11T02:03:54.508Z,23.68
2023-05-11T02:04:54.484Z,23.70
2023-05-11T02:05:54.486Z,23.70
2023-05-11T02:06:54.498Z,23.68
2023-05-11T02:07:54.462Z,23.64
2023-05-11T02:08:54.503Z,23.68
2023-05-11T02:09:54.515Z,23.61
2023-05-11T02:10:54.524Z,23.70
2023-05-11T02:11:54.505Z,23.65
2023-05-11T02:12:54.511Z,23.64
2023-05-11T02:13:54.511Z,23.68
2023-05-11T02:14:54.524Z,23.61
2023-05-11T02:15:54.621Z,23.64
2023-05-11T02:16:54.526Z,23.64
2023-05-11T02:17:54.593Z,23.64
2023-05-11T02:18:54.681Z,23.64
2023-05-11T02:19:54.530Z,23.57
2023-05-11T02:20:54.591Z,23.61
2023-05-11T02:21:54.556Z,23.57
2023-05-11T02:22:54.548Z,23.58
2023-05-11T02:23:54.568Z,23.64
2023-05-11T02:24:54.617Z,23.60
2023-05-11T02:25:54.583Z,23.60
2023-05-11T02:26:54.584Z,23.63
2023-05-11T02:27:54.567Z,23.67
2023-05-11T02:28:54.555Z,23.61
2023-05-11T02:29:54.585Z,23.63
2023-05-11T02:30:54.584Z,23.67
2023-05-11T02:31:54.557Z,23.63
2023-05-11T02:32:54.592Z,23.60
2023-05-11T02:33:54.636Z,23.67
2023-05-11T02:34:54.573Z,23.63
2023-05-11T02:35:54.592Z,23.63
2023-05-11T02:36:54.600Z,23.61
2023-05-11T02:37:54.565Z,23.67
2023-05-11T02:38:54.611Z,23.61
2023-05-11T02:39:54.642Z,23.67
2023-05-11T02:40:54.625Z,23.71
2023-05-11T02:41:54.661Z,23.68
2023-05-11T02:42:54.664Z,23.65
2023-05-11T02:43:54.653Z,23.68
2023-05-11T02:44:54.717Z,23.64
2023-05-11T02:45:54.676Z,23.64
2023-05-11T02:46:54.778Z,23.67
2023-05-11T02:47:54.773Z,23.65
2023-05-11T02:48:54.702Z,23.65
2023-05-11T02:49:54.725Z,23.64
2023-05-11T02:50:54.711Z,23.68
2023-05-11T02:51:54.720Z,23.65
2023-05-11T02:52:54.753Z,23.60
2023-05-11T02:53:54.764Z,23.67
2023-05-11T02:54:54.741Z,23.67
2023-05-11T02:55:54.765Z,23.63
2023-05-11T02:56:54.750Z,23.60
2023-05-11T02:57:54.825Z,23.61
2023-05-11T02:58:54.785Z,23.63
2023-05-11T02:59:54.783Z,23.60
2023-05-11T03:00:54.842Z,23.60
2023-05-11T03:01:54.933Z,23.70
2023-05-11T03:02:54.878Z,23.63
2023-05-11T03:03:54.857Z,23.61
2023-05-11T03:04:55.251Z,23.61
2023-05-11T03:05:54.839Z,23.63
2023-05-11T03:06:54.834Z,23.61
2023-05-11T03:07:54.845Z,23.61
2023-05-11T03:08:54.871Z,23.58
2023-05-11T03:09:54.881Z,23.60
2023-05-11T03:10:54.915Z,23.61
2023-05-11T03:11:54.871Z,23.60
2023-05-11T03:12:54.950Z,23.57
2023-05-11T03:13:54.898Z,23.56
2023-05-11T03:14:54.957Z,23.58
2023-05-11T03:15:54.966Z,23.58
2023-05-11T03:16:55.001Z,23.56
2023-05-11T03:17:54.957Z,23.60
2023-05-11T03:18:55.003Z,23.56
2023-05-11T03:19:54.985Z,23.54
2023-05-11T03:20:55.045Z,23.53
2023-05-11T03:21:55.042Z,23.56
2023-05-11T03:22:55.048Z,23.58
2023-05-11T03:23:55.044Z,23.56
2023-05-11T03:24:55.072Z,23.56
2023-05-11T03:25:55.139Z,23.57
2023-05-11T03:26:55.144Z,23.60
2023-05-11T03:27:55.152Z,23.46
2023-05-11T03:28:55.207Z,23.54
2023-05-11T03:29:55.273Z,23.56
2023-05-11T03:30:55.300Z,23.54
2023-05-11T03:31:55.360Z,23.49
2023-05-11T03:32:55.355Z,23.57
2023-05-11T03:33:55.286Z,23.56
2023-05-11T03:34:55.302Z,23.54
2023-05-11T03:35:55.311Z,23.49
2023-05-11T03:36:55.347Z,23.53
2023-05-11T03:37:55.359Z,23.54
2023-05-11T03:38:55.392Z,23.53
2023-05-11T03:39:55.438Z,23.57
2023-05-11T03:40:55.450Z,23.57
2023-05-11T03:41:55.445Z,23.54
2023-05-11T03:42:55.469Z,23.57
2023-05-11T03:43:55.506Z,23.54
2023-05-11T03:44:55.487Z,23.49
2023-05-11T03:45:55.527Z,23.49
2023-05-11T03:46:55.602Z,23.50
2023-05-11T03:47:55.661Z,23.49
2023-05-11T03:48:55.634Z,23.49
2023-05-11T03:49:55.623Z,23.46
2023-05-11T03:50:55.648Z,23.53
2023-05-11T03:51:55.723Z,23.50
2023-05-11T03:52:55.683Z,23.50
2023-05-11T03:53:55.717Z,23.47
2023-05-11T03:54:55.768Z,23.53
2023-05-11T03:55:55.774Z,23.50
2023-05-11T03:56:55.816Z,23.49
2023-05-11T03:57:55.864Z,23.50
2023-05-11T03:58:55.820Z,23.53
2023-05-11T03:59:56.284Z,23.53
2023-05-11T04:00:55.905Z,23.53
2023-05-11T04:01:55.912Z,23.49
2023-05-11T04:02:56.138Z,23.56
2023-05-11T04:03:56.092Z,23.52
2023-05-11T04:04:56.267Z,23.56
2023-05-11T04:05:56.057Z,23.53
2023-05-11T04:06:56.071Z,23.52
2023-05-11T04:07:56.079Z,23.54
2023-05-11T04:08:56.134Z,23.47
2023-05-11T04:09:56.174Z,23.43
2023-05-11T04:10:56.166Z,23.50
2023-05-11T04:11:56.221Z,23.50
2023-05-11T04:12:56.222Z,23.47
2023-05-11T04:13:56.279Z,23.42
2023-05-11T04:14:56.281Z,23.46
2023-05-11T04:15:56.348Z,23.49
2023-05-11T04:16:56.322Z,23.46
2023-05-11T04:17:56.387Z,23.49
2023-05-11T04:18:56.430Z,23.49
2023-05-11T04:19:56.795Z,23.49
2023-05-11T04:20:56.444Z,23.47
2023-05-11T04:21:56.458Z,23.46
2023-05-11T04:22:56.502Z,23.43
2023-05-11T04:23:56.548Z,23.46
2023-05-11T04:24:56.799Z,23.44
2023-05-11T04:25:56.627Z,23.46
2023-05-11T04:26:56.687Z,23.46
2023-05-11T04:27:56.633Z,23.49
2023-05-11T04:28:56.683Z,23.49
2023-05-11T04:29:56.676Z,23.49
2023-05-11T04:30:56.717Z,23.52
2023-05-11T04:31:56.749Z,23.50
2023-05-11T04:32:56.848Z,23.49
2023-05-11T04:33:56.824Z,23.49
2023-05-11T04:34:57.329Z,23.47
2023-05-11T04:35:56.865Z,23.44
2023-05-11T04:36:56.905Z,23.47
2023-05-11T04:37:56.955Z,23.44
2023-05-11T04:38:56.940Z,23.42
2023-05-11T04:39:56.947Z,23.47
2023-05-11T04:40:57.014Z,23.44
2023-05-11T04:41:57.041Z,23.47
2023-05-11T04:42:57.070Z,23.50
2023-05-11T04:43:57.119Z,23.42
2023-05-11T04:44:57.309Z,23.43
2023-05-11T04:45:57.195Z,23.42
2023-05-11T04:46:57.288Z,23.40
2023-05-11T04:47:57.262Z,23.37
2023-05-11T04:48:57.250Z,23.42
2023-05-11T04:49:57.845Z,23.42
2023-05-11T04:50:57.310Z,23.40
2023-05-11T04:51:57.343Z,23.39
2023-05-11T04:52:57.383Z,23.37
2023-05-11T04:53:58.282Z,23.43
2023-05-11T04:54:57.458Z,23.36
2023-05-11T04:55:57.471Z,23.43
2023-05-11T04:56:57.515Z,23.40
2023-05-11T04:57:57.528Z,23.39
2023-05-11T04:58:57.560Z,23.37
2023-05-11T04:59:57.834Z,23.39
2023-05-11T05:00:57.669Z,23.37
2023-05-11T05:01:57.688Z,23.40
2023-05-11T05:02:57.712Z,23.34
2023-05-11T05:03:57.767Z,23.37
2023-05-11T05:04:57.780Z,23.36
2023-05-11T05:05:57.787Z,23.34
2023-05-11T05:06:57.802Z,23.37
2023-05-11T05:07:57.812Z,23.34
2023-05-11T05:08:57.922Z,23.32
2023-05-11T05:09:57.932Z,23.37
2023-05-11T05:10:57.929Z,23.39
2023-05-11T05:11:58.008Z,23.34
2023-05-11T05:12:58.055Z,23.34
2023-05-11T05:13:58.038Z,23.33
2023-05-11T05:14:58.320Z,23.37
2023-05-11T05:15:58.158Z,23.34
2023-05-11T05:16:58.212Z,23.34
2023-05-11T05:17:58.303Z,23.33
2023-05-11T05:18:58.348Z,23.33
2023-05-11T05:19:58.900Z,23.39
2023-05-11T05:20:58.374Z,23.33
2023-05-11T05:21:58.416Z,23.34
2023-05-11T05:22:58.448Z,23.36
2023-05-11T05:23:58.469Z,23.30
2023-05-11T05:24:58.547Z,23.30
2023-05-11T05:25:58.846Z,23.33
2023-05-11T05:26:58.598Z,23.34
2023-05-11T05:27:58.652Z,23.37
2023-05-11T05:28:58.721Z,23.33
2023-05-11T05:29:58.749Z,23.34
2023-05-11T05:30:58.784Z,23.30
2023-05-11T05:31:58.765Z,23.40
2023-05-11T05:32:58.849Z,23.32
2023-05-11T05:33:58.837Z,23.26
2023-05-11T05:34:58.908Z,23.32
2023-05-11T05:35:58.892Z,23.32
2023-05-11T05:36:58.947Z,23.27
2023-05-11T05:37:59.028Z,23.26
2023-05-11T05:38:59.039Z,23.29
2023-05-11T05:39:59.093Z,23.29
2023-05-11T05:40:59.314Z,23.34
2023-05-11T05:41:59.138Z,23.30
2023-05-11T05:42:59.177Z,23.32
2023-05-11T05:43:59.236Z,23.27
2023-05-11T05:44:59.255Z,23.27
2023-05-11T05:45:59.377Z,23.26
2023-05-11T05:47:00.324Z,23.29
2023-05-11T05:47:59.403Z,23.23
2023-05-11T05:48:59.362Z,23.26
2023-05-11T05:49:59.419Z,23.25
2023-05-11T05:50:59.809Z,23.19
2023-05-11T05:51:59.483Z,23.16
2023-05-11T05:52:59.525Z,23.19
2023-05-11T05:53:59.536Z,23.16
2023-05-11T05:54:59.575Z,23.15
2023-05-11T05:55:59.848Z,23.15
2023-05-11T05:56:59.665Z,23.10
2023-05-11T05:57:59.687Z,23.13
2023-05-11T05:58:59.745Z,23.18
2023-05-11T05:59:59.767Z,23.20
2023-05-11T06:00:59.859Z,23.13
2023-05-11T06:01:59.857Z,23.18
2023-05-11T06:02:59.979Z,23.15
2023-05-11T06:04:00.136Z,23.13
2023-05-11T06:04:59.994Z,23.12
2023-05-11T06:06:00.319Z,23.13
2023-05-11T06:07:00.068Z,23.10
2023-05-11T06:08:09.671Z,23.16
2023-05-11T06:09:01.070Z,23.15
2023-05-11T06:10:00.049Z,23.18
2023-05-11T06:11:00.099Z,23.18
2023-05-11T06:12:00.057Z,23.19
2023-05-11T06:13:00.034Z,23.16
2023-05-11T06:14:00.037Z,23.13
2023-05-11T06:15:00.030Z,23.15
2023-05-11T06:16:00.405Z,23.18
2023-05-11T06:17:00.023Z,23.12
2023-05-11T06:18:00.058Z,23.13
2023-05-11T06:19:00.114Z,23.18
2023-05-11T06:19:59.978Z,23.19
2023-05-11T06:21:00.335Z,23.10
2023-05-11T06:21:59.995Z,23.13
2023-05-11T06:23:00.014Z,23.13
2023-05-11T06:24:00.083Z,23.15
2023-05-11T06:25:00.829Z,23.16
2023-05-11T06:26:00.126Z,23.15
2023-05-11T06:27:00.163Z,23.20
2023-05-11T06:28:00.188Z,23.20
2023-05-11T06:29:00.197Z,23.22
2023-05-11T06:30:00.281Z,23.18
2023-05-11T06:31:00.305Z,23.18
2023-05-11T06:32:00.358Z,23.15
2023-05-11T06:33:00.371Z,23.18
2023-05-11T06:34:00.405Z,23.18
2023-05-11T06:35:01.311Z,23.18
2023-05-11T06:36:01.942Z,23.20
2023-05-11T06:37:00.503Z,23.22
2023-05-11T06:38:00.559Z,23.20
2023-05-11T06:39:00.550Z,23.19
2023-05-11T06:40:00.597Z,23.18
2023-05-11T06:41:00.840Z,23.20
2023-05-11T06:42:03.551Z,23.18
2023-05-11T06:43:01.670Z,23.18
2023-05-11T06:44:00.670Z,23.22
2023-05-11T06:45:00.719Z,23.20
2023-05-11T06:46:01.403Z,23.20
2023-05-11T06:47:00.607Z,23.20
2023-05-11T06:48:00.669Z,23.23
2023-05-11T06:49:00.640Z,23.19
2023-05-11T06:50:00.633Z,23.22
2023-05-11T06:51:00.603Z,23.23
2023-05-11T06:52:00.573Z,23.20
2023-05-11T06:53:00.622Z,23.16
2023-05-11T06:54:00.551Z,23.15
2023-05-11T06:55:00.562Z,23.10
2023-05-11T06:56:00.580Z,23.18
2023-05-11T06:57:00.542Z,23.10
2023-05-11T06:58:00.597Z,23.18
2023-05-11T06:59:00.665Z,23.10
2023-05-11T07:00:00.663Z,23.16
2023-05-11T07:01:00.921Z,23.10
2023-05-11T07:02:00.735Z,23.13
2023-05-11T07:03:00.845Z,23.13
2023-05-11T07:04:00.833Z,23.13
2023-05-11T07:05:00.916Z,23.12
2023-05-11T07:06:01.341Z,23.12
2023-05-11T07:07:00.953Z,23.10
2023-05-11T07:08:01.018Z,23.15
2023-05-11T07:09:01.030Z,23.20
2023-05-11T07:10:01.078Z,23.16
2023-05-11T07:11:01.352Z,23.15
2023-05-11T07:12:01.150Z,23.20
2023-05-11T07:13:01.264Z,23.16
2023-05-11T07:14:01.265Z,23.12
2023-05-11T07:15:01.321Z,23.13
2023-05-11T07:16:01.393Z,23.12
2023-05-11T07:17:01.414Z,23.09
2023-05-11T07:18:01.549Z,23.18
2023-05-11T07:19:01.561Z,23.18
2023-05-11T07:20:01.517Z,23.15
2023-05-11T07:21:01.846Z,23.09
2023-05-11T07:22:01.576Z,23.18
2023-05-11T07:23:01.601Z,23.16
2023-05-11T07:24:01.694Z,23.18
2023-05-11T07:25:02.413Z,23.16
2023-05-11T07:26:01.882Z,23.16
2023-05-11T07:27:01.804Z,23.15
2023-05-11T07:28:02.406Z,23.18
2023-05-11T07:29:01.879Z,23.16
2023-05-11T07:30:01.933Z,23.12
2023-05-11T07:31:02.004Z,23.12
2023-05-11T07:32:01.995Z,23.15
2023-05-11T07:33:02.128Z,23.10
2023-05-11T07:34:02.103Z,23.09
2023-05-11T07:35:02.185Z,23.06
2023-05-11T07:36:02.233Z,23.10
2023-05-11T07:37:02.289Z,23.09
2023-05-11T07:38:02.365Z,23.05
2023-05-11T07:39:02.357Z,23.09
2023-05-11T07:40:02.417Z,23.03
2023-05-11T07:41:05.939Z,23.08
2023-05-11T07:42:02.490Z,23.03
2023-05-11T07:43:02.441Z,23.03
2023-05-11T07:44:02.423Z,23.03
2023-05-11T07:45:02.452Z,22.85
2023-05-11T07:46:02.925Z,22.92
2023-05-11T07:47:02.404Z,22.94
2023-05-11T07:48:02.537Z,22.98
2023-05-11T07:49:14.544Z,22.94
2023-05-11T07:50:03.381Z,22.88
2023-05-11T07:51:02.840Z,22.85
2023-05-11T07:52:02.340Z,22.89
2023-05-11T07:53:02.353Z,22.89
2023-05-11T07:54:02.314Z,22.89
2023-05-11T07:55:02.341Z,22.84
2023-05-11T07:56:02.363Z,22.89
2023-05-11T07:57:02.317Z,22.81
2023-05-11T07:58:02.328Z,22.88
2023-05-11T07:59:02.304Z,22.87
2023-05-11T08:00:02.299Z,22.85
2023-05-11T08:01:02.403Z,22.87
2023-05-11T08:02:02.329Z,22.85
2023-05-11T08:03:02.497Z,22.91
2023-05-11T08:04:02.428Z,22.92
2023-05-11T08:05:03.456Z,22.92
2023-05-11T08:06:02.933Z,22.95
2023-05-11T08:07:02.497Z,22.91
2023-05-11T08:08:02.525Z,22.89
2023-05-11T08:09:02.584Z,22.88
2023-05-11T08:10:02.655Z,22.94
2023-05-11T08:11:02.703Z,22.91
2023-05-11T08:12:03.403Z,22.91
2023-05-11T08:13:02.787Z,22.92
2023-05-11T08:14:02.834Z,22.89
2023-05-11T08:15:02.868Z,22.88
2023-05-11T08:16:03.443Z,22.91
2023-05-11T08:17:02.963Z,22.88
2023-05-11T08:18:03.079Z,22.87
2023-05-11T08:19:03.212Z,22.97
2023-05-11T08:20:03.098Z,22.89
2023-05-11T08:21:03.367Z,22.84
2023-05-11T08:22:03.201Z,22.88
2023-05-11T08:23:03.248Z,22.85
2023-05-11T08:24:03.305Z,22.88
2023-05-11T08:25:03.345Z,22.87
2023-05-11T08:26:03.390Z,22.87
2023-05-11T08:27:03.448Z,22.91
2023-05-11T08:28:03.467Z,22.72
2023-05-11T08:29:03.527Z,22.79
2023-05-11T08:30:03.632Z,22.75
2023-05-11T08:31:03.651Z,22.82
2023-05-11T08:32:03.760Z,22.78
2023-05-11T08:33:07.862Z,22.78
2023-05-11T08:34:13.734Z,22.76
2023-05-11T08:35:04.947Z,22.78
2023-05-11T08:36:03.926Z,22.81
2023-05-11T08:37:03.731Z,22.81
2023-05-11T08:38:03.722Z,22.76
2023-05-11T08:39:03.723Z,22.75
2023-05-11T08:40:03.705Z,22.81
2023-05-11T08:41:03.698Z,22.75
2023-05-11T08:42:03.899Z,22.78
2023-05-11T08:43:03.651Z,22.82
2023-05-11T08:44:03.666Z,22.78
2023-05-11T08:45:03.630Z,22.76
2023-05-11T08:46:03.695Z,22.78
2023-05-11T08:47:21.331Z,22.74
2023-05-11T08:48:04.697Z,22.75
2023-05-11T08:49:03.597Z,22.76
2023-05-11T08:50:03.665Z,22.74
2023-05-11T08:51:03.634Z,22.72
2023-05-11T08:52:04.811Z,22.78
2023-05-11T08:53:03.581Z,22.78
2023-05-11T08:54:03.576Z,22.79
2023-05-11T08:55:03.639Z,22.76
2023-05-11T08:56:04.053Z,22.79
2023-05-11T08:57:03.902Z,22.82
2023-05-11T08:58:03.825Z,22.84
2023-05-11T08:59:03.867Z,22.81
2023-05-11T09:00:03.907Z,22.87
2023-05-11T09:01:04.000Z,22.92
2023-05-11T09:02:04.351Z,22.88
2023-05-11T09:03:04.251Z,22.89
2023-05-11T09:04:04.071Z,22.88
2023-05-11T09:05:04.240Z,22.89
2023-05-11T09:06:04.153Z,22.97
2023-05-11T09:07:04.372Z,22.89
2023-05-11T09:08:04.264Z,22.92
2023-05-11T09:09:04.301Z,22.88
2023-05-11T09:10:04.387Z,22.89
2023-05-11T09:11:04.416Z,22.84
2023-05-11T09:12:04.449Z,22.88
2023-05-11T09:13:04.500Z,22.85
2023-05-11T09:14:04.548Z,22.84
2023-05-11T09:15:04.568Z,22.88
2023-05-11T09:16:04.696Z,22.84
2023-05-11T09:17:04.701Z,22.82
2023-05-11T09:18:04.908Z,22.84
2023-05-11T09:19:04.886Z,22.88
2023-05-11T09:20:04.822Z,22.78
2023-05-11T09:21:04.814Z,22.76
2023-05-11T09:22:04.891Z,22.88
2023-05-11T09:23:04.950Z,22.81
2023-05-11T09:24:04.980Z,22.82
2023-05-11T09:25:04.984Z,22.76
2023-05-11T09:26:05.036Z,22.87
2023-05-11T09:27:05.391Z,22.82
2023-05-11T09:28:05.135Z,22.79
2023-05-11T09:29:05.473Z,22.84
2023-05-11T09:30:05.203Z,22.82
2023-05-11T09:31:05.277Z,22.82
2023-05-11T09:32:05.379Z,22.78
2023-05-11T09:33:05.367Z,22.78
2023-05-11T09:34:05.342Z,22.81
2023-05-11T09:35:05.371Z,22.74
2023-05-11T09:36:05.417Z,22.82
2023-05-11T09:37:05.895Z,22.79
2023-05-11T09:38:05.442Z,22.82
2023-05-11T09:39:05.529Z,22.82
2023-05-11T09:41:05.651Z,22.84
2023-05-11T09:42:05.923Z,22.82
2023-05-11T09:43:05.525Z,22.89
2023-05-11T09:44:05.560Z,22.85
2023-05-11T09:45:05.540Z,22.88
2023-05-11T09:46:05.534Z,22.71
2023-05-11T09:47:05.910Z,22.55
2023-05-11T09:48:05.517Z,22.61
2023-05-11T09:49:05.521Z,22.48
2023-05-11T09:50:05.507Z,22.47
2023-05-11T09:51:05.491Z,22.55
2023-05-11T09:52:05.949Z,22.63
2023-05-11T09:53:05.491Z,22.47
2023-05-11T09:54:05.443Z,22.65
2023-05-11T09:55:05.458Z,22.85
2023-05-11T09:56:05.448Z,22.76
2023-05-11T09:57:05.928Z,22.84
2023-05-11T09:58:05.427Z,23.05
2023-05-11T09:59:05.436Z,23.15
2023-05-11T10:00:05.431Z,23.22
2023-05-11T10:01:05.461Z,23.13
2023-05-11T10:02:05.892Z,22.94
2023-05-11T10:03:05.479Z,22.92
2023-05-11T10:04:22.357Z,22.81
2023-05-11T10:05:06.406Z,22.89
2023-05-11T10:06:05.417Z,23.16
2023-05-11T10:07:05.384Z,23.20
2023-05-11T10:08:05.366Z,23.33
2023-05-11T10:09:05.350Z,23.42
2023-05-11T10:10:05.339Z,23.44
2023-05-11T10:11:05.343Z,23.42
2023-05-11T10:12:05.415Z,23.46
2023-05-11T10:13:05.320Z,23.37
2023-05-11T10:14:05.408Z,23.37
2023-05-11T10:15:05.358Z,23.25
2023-05-11T10:16:05.569Z,23.36
2023-05-11T10:17:05.888Z,23.26
2023-05-11T10:18:05.555Z,23.36
2023-05-11T10:19:05.619Z,23.19
2023-05-11T10:20:05.622Z,23.12
2023-05-11T10:21:05.614Z,23.06
2023-05-11T10:22:05.928Z,23.15
2023-05-11T10:23:05.646Z,23.22
2023-05-11T10:24:05.666Z,23.20
2023-05-11T10:25:05.644Z,23.20
2023-05-11T10:26:05.637Z,23.12
2023-05-11T10:27:05.924Z,23.06
2023-05-11T10:28:05.715Z,23.15
2023-05-11T10:29:05.712Z,23.12
2023-05-11T10:30:05.729Z,23.30
2023-05-11T10:31:05.756Z,23.23
2023-05-11T10:32:05.980Z,23.36
2023-05-11T10:33:05.791Z,23.29
2023-05-11T10:34:05.741Z,23.22
2023-05-11T10:35:05.786Z,23.52
2023-05-11T10:36:05.758Z,23.64
2023-05-11T10:37:05.918Z,23.71
2023-05-11T10:38:05.745Z,23.75
2023-05-11T10:39:05.819Z,23.78
2023-05-11T10:40:05.846Z,23.80
2023-05-11T10:41:05.892Z,23.82
2023-05-11T10:42:06.463Z,23.80
2023-05-11T10:43:05.997Z,23.81
2023-05-11T10:44:06.129Z,23.82
2023-05-11T10:45:06.123Z,23.65
2023-05-11T10:46:06.205Z,23.81
2023-05-11T10:47:06.430Z,23.70
2023-05-11T10:48:06.368Z,23.80
2023-05-11T10:49:06.335Z,23.80
2023-05-11T10:50:06.381Z,23.78
2023-05-11T10:51:06.373Z,23.75
2023-05-11T10:52:06.441Z,23.74
2023-05-11T10:53:06.398Z,23.74
2023-05-11T10:54:06.444Z,23.71
2023-05-11T10:55:06.414Z,23.67
2023-05-11T10:56:06.425Z,23.64
2023-05-11T10:57:06.937Z,23.67
2023-05-11T10:58:06.397Z,23.67
2023-05-11T10:59:06.404Z,23.64
2023-05-11T11:00:06.443Z,23.54
2023-05-11T11:01:06.550Z,23.54
2023-05-11T11:02:06.449Z,23.53
2023-05-11T11:03:06.513Z,23.58
2023-05-11T11:04:06.471Z,23.58
2023-05-11T11:05:06.574Z,23.60
2023-05-11T11:06:06.652Z,23.52
2023-05-11T11:07:06.634Z,23.50
2023-05-11T11:08:06.711Z,23.61
2023-05-11T11:09:06.744Z,23.44
2023-05-11T11:10:06.791Z,23.40
2023-05-11T11:11:06.827Z,23.56
2023-05-11T11:12:06.939Z,23.39
2023-05-11T11:13:06.869Z,23.40
2023-05-11T11:14:06.914Z,23.23
2023-05-11T11:15:06.959Z,23.18
2023-05-11T11:16:07.020Z,23.32
2023-05-11T11:17:07.493Z,23.19
2023-05-11T11:18:07.035Z,23.20
2023-05-11T11:19:07.022Z,23.13
2023-05-11T11:20:07.038Z,23.27
2023-05-11T11:21:06.986Z,23.37
2023-05-11T11:22:07.015Z,23.40
2023-05-11T11:23:07.052Z,23.54
2023-05-11T11:24:07.124Z,23.57
2023-05-11T11:25:07.115Z,23.61
2023-05-11T11:26:07.128Z,23.74
2023-05-11T11:27:07.444Z,23.67
2023-05-11T11:28:07.185Z,23.56
2023-05-11T11:29:07.200Z,23.58
2023-05-11T11:30:07.194Z,23.65
2023-05-11T11:31:07.220Z,23.53
2023-05-11T11:32:07.415Z,23.49
2023-05-11T11:33:07.333Z,23.67
2023-05-11T11:34:07.232Z,23.49
2023-05-11T11:35:07.239Z,23.53
2023-05-11T11:36:07.248Z,23.44
2023-05-11T11:37:07.411Z,23.44
2023-05-11T11:38:07.289Z,23.49
2023-05-11T11:39:07.365Z,23.49
2023-05-11T11:40:14.507Z,23.52
2023-05-11T11:41:08.343Z,23.50
2023-05-11T11:42:07.412Z,23.52
2023-05-11T11:43:07.309Z,23.52
2023-05-11T11:44:07.301Z,23.58
2023-05-11T11:45:07.281Z,23.52
2023-05-11T11:46:07.350Z,23.52
2023-05-11T11:47:07.268Z,23.49
2023-05-11T11:48:07.465Z,23.57
2023-05-11T11:49:07.258Z,23.58
2023-05-11T11:50:07.274Z,23.57
2023-05-11T11:51:07.284Z,23.56
2023-05-11T11:52:07.265Z,23.57
2023-05-11T11:53:07.468Z,23.57
2023-05-11T11:54:07.235Z,23.57
2023-05-11T11:55:07.234Z,23.61
2023-05-11T11:56:07.240Z,23.60
2023-05-11T11:57:07.206Z,23.81
2023-05-11T11:58:07.243Z,23.85
2023-05-11T11:59:07.175Z,23.91
2023-05-11T12:00:07.239Z,23.94
2023-05-11T12:01:07.217Z,23.94
2023-05-11T12:02:07.161Z,23.94
2023-05-11T12:03:07.488Z,23.92
2023-05-11T12:04:07.309Z,23.85
2023-05-11T12:05:07.313Z,23.92
2023-05-11T12:06:07.132Z,23.94
2023-05-11T12:07:07.187Z,23.95
2023-05-11T12:08:07.452Z,23.98
2023-05-11T12:09:07.288Z,23.98
2023-05-11T12:10:07.398Z,23.97
2023-05-11T12:11:07.374Z,23.94
2023-05-11T12:12:07.518Z,23.94
2023-05-11T12:13:07.971Z,23.92
2023-05-11T12:14:07.598Z,23.94
2023-05-11T12:15:07.596Z,23.92
2023-05-11T12:16:07.719Z,23.87
2023-05-11T12:17:07.668Z,23.85
2023-05-11T12:18:07.964Z,23.80
2023-05-11T12:19:07.817Z,23.81
2023-05-11T12:20:07.809Z,23.80
2023-05-11T12:21:07.863Z,23.77
2023-05-11T12:22:07.919Z,23.68
2023-05-11T12:23:07.964Z,23.61
2023-05-11T12:24:07.919Z,23.63
2023-05-11T12:25:07.937Z,23.58
2023-05-11T12:26:07.952Z,23.60
2023-05-11T12:27:07.924Z,23.53
2023-05-11T12:28:07.955Z,23.60
2023-05-11T12:29:07.993Z,23.36
2023-05-11T12:30:08.065Z,23.50
2023-05-11T12:31:08.856Z,23.44
2023-05-11T12:32:08.279Z,23.36
2023-05-11T12:33:08.261Z,23.40
2023-05-11T12:34:08.251Z,23.30
2023-05-11T12:35:08.246Z,23.29
2023-05-11T12:36:08.335Z,23.26
2023-05-11T12:37:08.378Z,23.40
2023-05-11T12:38:08.420Z,23.26
2023-05-11T12:39:08.380Z,23.27
2023-05-11T12:40:08.516Z,23.36
2023-05-11T12:41:08.454Z,23.32
2023-05-11T12:42:08.506Z,23.40
2023-05-11T12:43:08.551Z,23.43
2023-05-11T12:44:08.577Z,23.46
2023-05-11T12:45:08.578Z,23.44
2023-05-11T12:46:08.690Z,23.49
2023-05-11T12:47:08.636Z,23.46
2023-05-11T12:48:09.046Z,23.44
2023-05-11T12:49:08.681Z,23.46
2023-05-11T12:50:08.727Z,23.42
2023-05-11T12:51:08.768Z,23.50
2023-05-11T12:52:08.842Z,23.50
2023-05-11T12:53:08.839Z,23.50
2023-05-11T12:54:08.907Z,23.56